sensor_id;sensor_type;location;lat;lon;timestamp;P1;durP1;ratioP1;P2;durP2;ratioP2
11008;SDS011;5557;51.670;7.788;2023-02-28T00:01:27;1.70;;;1.60;;
11008;SDS011;5557;51.670;7.788;2023-02-28T00:03:54;1.73;;;1.63;;
11008;SDS011;5557;51.670;7.788;2023-02-28T00:06:22;1.50;;;1.40;;
11008;SDS011;5557;51.670;7.788;2023-02-28T00:08:50;2.30;;;2.03;;
11008;SDS011;5557;51.670;7.788;2023-02-28T00:11:17;1.33;;;1.33;;
11008;SDS011;5557;51.670;7.788;2023-02-28T00:13:45;1.63;;;1.53;;
11008;SDS011;5557;51.670;7.788;2023-02-28T00:16:14;2.47;;;1.97;;
11008;SDS011;5557;51.670;7.788;2023-02-28T00:18:46;1.97;;;1.87;;
11008;SDS011;5557;51.670;7.788;2023-02-28T00:21:17;1.93;;;1.83;;
11008;SDS011;5557;51.670;7.788;2023-02-28T00:23:45;1.80;;;1.70;;
11008;SDS011;5557;51.670;7.788;2023-02-28T00:26:12;1.93;;;1.83;;
11008;SDS011;5557;51.670;7.788;2023-02-28T00:28:39;1.83;;;1.73;;
11008;SDS011;5557;51.670;7.788;2023-02-28T00:31:06;2.80;;;2.10;;
11008;SDS011;5557;51.670;7.788;2023-02-28T00:33:33;2.03;;;1.93;;
11008;SDS011;5557;51.670;7.788;2023-02-28T00:36:01;2.27;;;2.07;;
11008;SDS011;5557;51.670;7.788;2023-02-28T00:38:32;1.80;;;1.70;;
11008;SDS011;5557;51.670;7.788;2023-02-28T00:40:59;1.80;;;1.70;;
11008;SDS011;5557;51.670;7.788;2023-02-28T00:43:32;2.13;;;1.27;;
11008;SDS011;5557;51.670;7.788;2023-02-28T00:46:03;2.10;;;2.00;;
11008;SDS011;5557;51.670;7.788;2023-02-28T00:48:31;1.73;;;1.63;;
11008;SDS011;5557;51.670;7.788;2023-02-28T00:50:58;2.43;;;2.23;;
11008;SDS011;5557;51.670;7.788;2023-02-28T00:53:25;3.30;;;2.40;;
11008;SDS011;5557;51.670;7.788;2023-02-28T00:55:52;2.80;;;2.70;;
11008;SDS011;5557;51.670;7.788;2023-02-28T00:58:19;2.53;;;2.33;;
11008;SDS011;5557;51.670;7.788;2023-02-28T01:00:46;2.70;;;2.27;;
11008;SDS011;5557;51.670;7.788;2023-02-28T01:03:17;2.70;;;2.60;;
11008;SDS011;5557;51.670;7.788;2023-02-28T01:05:45;2.73;;;2.53;;
11008;SDS011;5557;51.670;7.788;2023-02-28T01:08:13;2.93;;;2.63;;
11008;SDS011;5557;51.670;7.788;2023-02-28T01:10:41;2.73;;;2.63;;
11008;SDS011;5557;51.670;7.788;2023-02-28T01:13:08;4.30;;;2.63;;
11008;SDS011;5557;51.670;7.788;2023-02-28T01:15:34;5.00;;;4.50;;
11008;SDS011;5557;51.670;7.788;2023-02-28T01:18:02;3.00;;;2.70;;
11008;SDS011;5557;51.670;7.788;2023-02-28T01:20:29;5.80;;;3.00;;
11008;SDS011;5557;51.670;7.788;2023-02-28T01:22:56;3.03;;;2.70;;
11008;SDS011;5557;51.670;7.788;2023-02-28T01:25:22;2.07;;;1.97;;
11008;SDS011;5557;51.670;7.788;2023-02-28T01:27:50;3.00;;;2.50;;
11008;SDS011;5557;51.670;7.788;2023-02-28T01:30:17;2.63;;;2.50;;
11008;SDS011;5557;51.670;7.788;2023-02-28T01:32:44;4.43;;;3.33;;
11008;SDS011;5557;51.670;7.788;2023-02-28T01:35:11;2.87;;;2.73;;
11008;SDS011;5557;51.670;7.788;2023-02-28T01:37:38;3.53;;;3.33;;
11008;SDS011;5557;51.670;7.788;2023-02-28T01:40:05;3.23;;;3.00;;
11008;SDS011;5557;51.670;7.788;2023-02-28T01:42:33;2.60;;;2.50;;
11008;SDS011;5557;51.670;7.788;2023-02-28T01:45:05;3.47;;;2.23;;
11008;SDS011;5557;51.670;7.788;2023-02-28T01:47:52;2.80;;;2.70;;
11008;SDS011;5557;51.670;7.788;2023-02-28T01:50:24;7.93;;;2.40;;
11008;SDS011;5557;51.670;7.788;2023-02-28T01:52:55;2.50;;;2.40;;
11008;SDS011;5557;51.670;7.788;2023-02-28T01:55:27;2.83;;;2.50;;
11008;SDS011;5557;51.670;7.788;2023-02-28T01:57:57;2.43;;;2.33;;
11008;SDS011;5557;51.670;7.788;2023-02-28T02:00:26;2.37;;;2.27;;
11008;SDS011;5557;51.670;7.788;2023-02-28T02:02:56;2.13;;;2.03;;
11008;SDS011;5557;51.670;7.788;2023-02-28T02:05:26;2.73;;;2.63;;
11008;SDS011;5557;51.670;7.788;2023-02-28T02:07:58;2.57;;;2.47;;
11008;SDS011;5557;51.670;7.788;2023-02-28T02:10:33;3.13;;;2.93;;
11008;SDS011;5557;51.670;7.788;2023-02-28T02:16:35;2.60;;;2.50;;
11008;SDS011;5557;51.670;7.788;2023-02-28T02:39:26;3.30;;;3.20;;
11008;SDS011;5557;51.670;7.788;2023-02-28T02:42:03;3.40;;;3.10;;
11008;SDS011;5557;51.670;7.788;2023-02-28T02:44:40;3.20;;;3.03;;
11008;SDS011;5557;51.670;7.788;2023-02-28T02:47:15;3.50;;;3.40;;
11008;SDS011;5557;51.670;7.788;2023-02-28T02:49:51;3.83;;;3.63;;
11008;SDS011;5557;51.670;7.788;2023-02-28T02:52:22;3.40;;;3.20;;
11008;SDS011;5557;51.670;7.788;2023-02-28T02:54:56;3.40;;;3.23;;
11008;SDS011;5557;51.670;7.788;2023-02-28T02:57:35;3.10;;;3.00;;
11008;SDS011;5557;51.670;7.788;2023-02-28T03:00:07;3.73;;;3.10;;
11008;SDS011;5557;51.670;7.788;2023-02-28T03:02:36;3.93;;;3.00;;
11008;SDS011;5557;51.670;7.788;2023-02-28T03:05:07;3.50;;;3.40;;
11008;SDS011;5557;51.670;7.788;2023-02-28T03:07:40;4.13;;;3.80;;
11008;SDS011;5557;51.670;7.788;2023-02-28T03:19:25;3.77;;;3.67;;
11008;SDS011;5557;51.670;7.788;2023-02-28T03:22:43;3.30;;;3.20;;
11008;SDS011;5557;51.670;7.788;2023-02-28T03:28:22;3.60;;;3.40;;
11008;SDS011;5557;51.670;7.788;2023-02-28T03:31:33;3.77;;;3.43;;
11008;SDS011;5557;51.670;7.788;2023-02-28T03:36:37;3.77;;;3.57;;
11008;SDS011;5557;51.670;7.788;2023-02-28T03:39:20;3.77;;;3.57;;
11008;SDS011;5557;51.670;7.788;2023-02-28T03:42:19;3.80;;;3.70;;
11008;SDS011;5557;51.670;7.788;2023-02-28T03:47:44;4.40;;;4.30;;
11008;SDS011;5557;51.670;7.788;2023-02-28T03:50:21;4.13;;;3.90;;
11008;SDS011;5557;51.670;7.788;2023-02-28T03:53:14;3.73;;;3.63;;
11008;SDS011;5557;51.670;7.788;2023-02-28T03:55:52;3.00;;;2.90;;
11008;SDS011;5557;51.670;7.788;2023-02-28T04:01:23;2.90;;;2.80;;
11008;SDS011;5557;51.670;7.788;2023-02-28T04:03:52;3.40;;;3.20;;
11008;SDS011;5557;51.670;7.788;2023-02-28T04:06:20;3.70;;;3.60;;
11008;SDS011;5557;51.670;7.788;2023-02-28T04:08:49;5.10;;;4.80;;
11008;SDS011;5557;51.670;7.788;2023-02-28T04:11:23;5.27;;;4.77;;
11008;SDS011;5557;51.670;7.788;2023-02-28T04:14:02;5.57;;;5.07;;
11008;SDS011;5557;51.670;7.788;2023-02-28T04:16:30;4.23;;;4.03;;
11008;SDS011;5557;51.670;7.788;2023-02-28T04:19:02;5.00;;;4.77;;
11008;SDS011;5557;51.670;7.788;2023-02-28T04:21:35;4.97;;;4.67;;
11008;SDS011;5557;51.670;7.788;2023-02-28T04:24:06;4.97;;;4.53;;
11008;SDS011;5557;51.670;7.788;2023-02-28T04:26:34;5.77;;;5.13;;
11008;SDS011;5557;51.670;7.788;2023-02-28T04:29:03;5.03;;;4.73;;
11008;SDS011;5557;51.670;7.788;2023-02-28T04:31:32;6.20;;;3.37;;
11008;SDS011;5557;51.670;7.788;2023-02-28T04:33:59;3.10;;;2.90;;
11008;SDS011;5557;51.670;7.788;2023-02-28T04:36:26;6.40;;;3.30;;
11008;SDS011;5557;51.670;7.788;2023-02-28T04:38:54;2.83;;;2.67;;
11008;SDS011;5557;51.670;7.788;2023-02-28T04:41:21;3.73;;;3.30;;
11008;SDS011;5557;51.670;7.788;2023-02-28T04:43:49;3.57;;;3.30;;
11008;SDS011;5557;51.670;7.788;2023-02-28T04:46:18;3.73;;;3.53;;
11008;SDS011;5557;51.670;7.788;2023-02-28T04:48:45;4.63;;;3.93;;
11008;SDS011;5557;51.670;7.788;2023-02-28T04:51:13;3.27;;;3.00;;
11008;SDS011;5557;51.670;7.788;2023-02-28T04:53:41;3.80;;;3.50;;
11008;SDS011;5557;51.670;7.788;2023-02-28T04:56:13;3.93;;;3.73;;
11008;SDS011;5557;51.670;7.788;2023-02-28T04:58:41;3.63;;;3.53;;
11008;SDS011;5557;51.670;7.788;2023-02-28T05:01:27;6.50;;;4.30;;
11008;SDS011;5557;51.670;7.788;2023-02-28T05:03:57;5.47;;;4.93;;
11008;SDS011;5557;51.670;7.788;2023-02-28T05:06:26;4.40;;;4.10;;
11008;SDS011;5557;51.670;7.788;2023-02-28T05:08:54;5.77;;;3.93;;
11008;SDS011;5557;51.670;7.788;2023-02-28T05:11:25;3.43;;;3.23;;
11008;SDS011;5557;51.670;7.788;2023-02-28T05:14:01;4.60;;;3.80;;
11008;SDS011;5557;51.670;7.788;2023-02-28T05:16:30;4.67;;;4.00;;
11008;SDS011;5557;51.670;7.788;2023-02-28T05:18:57;5.30;;;3.93;;
11008;SDS011;5557;51.670;7.788;2023-02-28T05:21:35;4.60;;;4.30;;
11008;SDS011;5557;51.670;7.788;2023-02-28T05:24:05;4.37;;;4.10;;
11008;SDS011;5557;51.670;7.788;2023-02-28T05:26:44;5.13;;;4.70;;
11008;SDS011;5557;51.670;7.788;2023-02-28T05:29:11;4.47;;;4.17;;
11008;SDS011;5557;51.670;7.788;2023-02-28T05:31:38;4.33;;;3.93;;
11008;SDS011;5557;51.670;7.788;2023-02-28T05:34:05;4.90;;;4.60;;
11008;SDS011;5557;51.670;7.788;2023-02-28T05:36:32;6.70;;;6.20;;
11008;SDS011;5557;51.670;7.788;2023-02-28T05:38:59;5.53;;;5.13;;
11008;SDS011;5557;51.670;7.788;2023-02-28T05:41:27;4.73;;;4.43;;
11008;SDS011;5557;51.670;7.788;2023-02-28T05:43:54;5.23;;;4.93;;
11008;SDS011;5557;51.670;7.788;2023-02-28T05:46:21;13.13;;;5.83;;
11008;SDS011;5557;51.670;7.788;2023-02-28T05:48:48;5.70;;;5.40;;
11008;SDS011;5557;51.670;7.788;2023-02-28T05:51:16;5.90;;;5.40;;
11008;SDS011;5557;51.670;7.788;2023-02-28T05:53:44;5.77;;;5.37;;
11008;SDS011;5557;51.670;7.788;2023-02-28T05:56:11;4.70;;;4.30;;
11008;SDS011;5557;51.670;7.788;2023-02-28T05:58:38;5.23;;;4.57;;
11008;SDS011;5557;51.670;7.788;2023-02-28T06:01:22;6.73;;;5.93;;
11008;SDS011;5557;51.670;7.788;2023-02-28T06:04:15;6.13;;;4.20;;
11008;SDS011;5557;51.670;7.788;2023-02-28T06:06:56;5.27;;;4.97;;
11008;SDS011;5557;51.670;7.788;2023-02-28T06:09:23;5.03;;;4.57;;
11008;SDS011;5557;51.670;7.788;2023-02-28T06:11:51;4.87;;;4.57;;
11008;SDS011;5557;51.670;7.788;2023-02-28T06:14:18;4.53;;;4.33;;
11008;SDS011;5557;51.670;7.788;2023-02-28T06:16:46;5.03;;;4.83;;
11008;SDS011;5557;51.670;7.788;2023-02-28T06:19:13;5.23;;;4.83;;
11008;SDS011;5557;51.670;7.788;2023-02-28T06:21:41;5.20;;;4.77;;
11008;SDS011;5557;51.670;7.788;2023-02-28T06:24:09;5.50;;;5.10;;
11008;SDS011;5557;51.670;7.788;2023-02-28T06:26:36;5.57;;;4.67;;
11008;SDS011;5557;51.670;7.788;2023-02-28T06:29:03;6.07;;;5.73;;
11008;SDS011;5557;51.670;7.788;2023-02-28T06:31:30;6.10;;;5.57;;
11008;SDS011;5557;51.670;7.788;2023-02-28T06:33:58;6.43;;;5.83;;
11008;SDS011;5557;51.670;7.788;2023-02-28T06:36:25;9.03;;;5.97;;
11008;SDS011;5557;51.670;7.788;2023-02-28T06:38:52;6.37;;;6.07;;
11008;SDS011;5557;51.670;7.788;2023-02-28T06:41:22;12.77;;;10.70;;
11008;SDS011;5557;51.670;7.788;2023-02-28T06:43:54;14.90;;;9.40;;
11008;SDS011;5557;51.670;7.788;2023-02-28T06:46:21;14.70;;;11.13;;
11008;SDS011;5557;51.670;7.788;2023-02-28T06:48:48;16.70;;;9.40;;
11008;SDS011;5557;51.670;7.788;2023-02-28T06:51:17;10.73;;;8.87;;
11008;SDS011;5557;51.670;7.788;2023-02-28T06:53:46;10.63;;;8.93;;
11008;SDS011;5557;51.670;7.788;2023-02-28T06:56:14;7.93;;;7.40;;
11008;SDS011;5557;51.670;7.788;2023-02-28T06:58:45;9.13;;;6.07;;
11008;SDS011;5557;51.670;7.788;2023-02-28T07:01:13;8.40;;;7.07;;
11008;SDS011;5557;51.670;7.788;2023-02-28T07:03:40;8.10;;;7.30;;
11008;SDS011;5557;51.670;7.788;2023-02-28T07:06:07;7.07;;;6.40;;
11008;SDS011;5557;51.670;7.788;2023-02-28T07:08:34;6.67;;;6.23;;
11008;SDS011;5557;51.670;7.788;2023-02-28T07:11:02;7.40;;;6.90;;
11008;SDS011;5557;51.670;7.788;2023-02-28T07:13:29;12.13;;;7.40;;
11008;SDS011;5557;51.670;7.788;2023-02-28T07:16:00;9.77;;;8.90;;
11008;SDS011;5557;51.670;7.788;2023-02-28T07:18:29;9.13;;;8.20;;
11008;SDS011;5557;51.670;7.788;2023-02-28T07:20:56;8.53;;;7.73;;
11008;SDS011;5557;51.670;7.788;2023-02-28T07:23:24;8.37;;;7.77;;
11008;SDS011;5557;51.670;7.788;2023-02-28T07:25:51;7.80;;;7.10;;
11008;SDS011;5557;51.670;7.788;2023-02-28T07:28:18;12.37;;;8.00;;
11008;SDS011;5557;51.670;7.788;2023-02-28T07:30:45;17.07;;;9.37;;
11008;SDS011;5557;51.670;7.788;2023-02-28T07:33:12;12.73;;;6.97;;
11008;SDS011;5557;51.670;7.788;2023-02-28T07:35:39;7.37;;;6.67;;
11008;SDS011;5557;51.670;7.788;2023-02-28T07:38:06;17.03;;;6.30;;
11008;SDS011;5557;51.670;7.788;2023-02-28T07:40:34;5.33;;;5.03;;
11008;SDS011;5557;51.670;7.788;2023-02-28T07:43:02;4.97;;;4.47;;
11008;SDS011;5557;51.670;7.788;2023-02-28T07:45:29;9.77;;;5.00;;
11008;SDS011;5557;51.670;7.788;2023-02-28T07:47:58;9.33;;;6.53;;
11008;SDS011;5557;51.670;7.788;2023-02-28T07:50:25;7.70;;;4.93;;
11008;SDS011;5557;51.670;7.788;2023-02-28T07:53:00;13.47;;;5.90;;
11008;SDS011;5557;51.670;7.788;2023-02-28T07:55:27;10.03;;;5.30;;
11008;SDS011;5557;51.670;7.788;2023-02-28T07:57:54;8.17;;;5.23;;
11008;SDS011;5557;51.670;7.788;2023-02-28T08:00:21;5.90;;;5.33;;
11008;SDS011;5557;51.670;7.788;2023-02-28T08:02:48;7.57;;;5.50;;
11008;SDS011;5557;51.670;7.788;2023-02-28T08:05:16;7.30;;;4.90;;
11008;SDS011;5557;51.670;7.788;2023-02-28T08:07:48;8.63;;;5.00;;
11008;SDS011;5557;51.670;7.788;2023-02-28T08:10:15;7.57;;;5.13;;
11008;SDS011;5557;51.670;7.788;2023-02-28T08:12:42;10.97;;;4.57;;
11008;SDS011;5557;51.670;7.788;2023-02-28T08:15:09;5.37;;;4.83;;
11008;SDS011;5557;51.670;7.788;2023-02-28T08:17:36;7.47;;;3.90;;
11008;SDS011;5557;51.670;7.788;2023-02-28T08:20:03;11.20;;;3.53;;
11008;SDS011;5557;51.670;7.788;2023-02-28T08:22:31;8.17;;;5.83;;
11008;SDS011;5557;51.670;7.788;2023-02-28T08:24:58;6.27;;;4.40;;
11008;SDS011;5557;51.670;7.788;2023-02-28T08:27:25;7.53;;;4.67;;
11008;SDS011;5557;51.670;7.788;2023-02-28T08:29:52;12.50;;;5.47;;
11008;SDS011;5557;51.670;7.788;2023-02-28T08:32:19;7.90;;;5.00;;
11008;SDS011;5557;51.670;7.788;2023-02-28T08:34:55;19.40;;;5.60;;
11008;SDS011;5557;51.670;7.788;2023-02-28T08:37:22;4.70;;;3.90;;
11008;SDS011;5557;51.670;7.788;2023-02-28T08:39:49;6.87;;;3.73;;
11008;SDS011;5557;51.670;7.788;2023-02-28T08:42:20;4.67;;;4.20;;
11008;SDS011;5557;51.670;7.788;2023-02-28T08:44:46;10.17;;;5.00;;
11008;SDS011;5557;51.670;7.788;2023-02-28T08:47:13;5.10;;;4.60;;
11008;SDS011;5557;51.670;7.788;2023-02-28T08:49:40;17.57;;;6.97;;
11008;SDS011;5557;51.670;7.788;2023-02-28T08:52:07;10.77;;;6.00;;
11008;SDS011;5557;51.670;7.788;2023-02-28T08:54:35;5.00;;;4.60;;
11008;SDS011;5557;51.670;7.788;2023-02-28T08:57:02;4.03;;;3.70;;
11008;SDS011;5557;51.670;7.788;2023-02-28T08:59:29;11.60;;;3.90;;
11008;SDS011;5557;51.670;7.788;2023-02-28T09:01:56;3.13;;;2.90;;
11008;SDS011;5557;51.670;7.788;2023-02-28T09:04:23;2.60;;;2.40;;
11008;SDS011;5557;51.670;7.788;2023-02-28T09:06:51;2.87;;;2.70;;
11008;SDS011;5557;51.670;7.788;2023-02-28T09:09:18;4.10;;;1.90;;
11008;SDS011;5557;51.670;7.788;2023-02-28T09:11:44;3.27;;;2.60;;
11008;SDS011;5557;51.670;7.788;2023-02-28T09:14:11;3.40;;;2.87;;
11008;SDS011;5557;51.670;7.788;2023-02-28T09:16:38;7.13;;;2.20;;
11008;SDS011;5557;51.670;7.788;2023-02-28T09:19:05;2.20;;;2.10;;
11008;SDS011;5557;51.670;7.788;2023-02-28T09:21:32;2.03;;;1.93;;
11008;SDS011;5557;51.670;7.788;2023-02-28T09:23:59;1.53;;;1.43;;
11008;SDS011;5557;51.670;7.788;2023-02-28T09:26:27;1.77;;;1.57;;
11008;SDS011;5557;51.670;7.788;2023-02-28T09:29:07;4.40;;;2.43;;
11008;SDS011;5557;51.670;7.788;2023-02-28T09:31:35;5.00;;;2.20;;
11008;SDS011;5557;51.670;7.788;2023-02-28T09:34:03;2.07;;;1.97;;
11008;SDS011;5557;51.670;7.788;2023-02-28T09:36:31;2.13;;;2.03;;
11008;SDS011;5557;51.670;7.788;2023-02-28T09:39:09;1.60;;;1.50;;
11008;SDS011;5557;51.670;7.788;2023-02-28T09:41:41;1.63;;;1.53;;
11008;SDS011;5557;51.670;7.788;2023-02-28T09:44:21;2.30;;;2.10;;
11008;SDS011;5557;51.670;7.788;2023-02-28T09:47:05;2.53;;;1.80;;
11008;SDS011;5557;51.670;7.788;2023-02-28T09:49:41;2.23;;;1.60;;
11008;SDS011;5557;51.670;7.788;2023-02-28T09:52:14;2.03;;;1.67;;
11008;SDS011;5557;51.670;7.788;2023-02-28T09:54:45;2.93;;;1.80;;
11008;SDS011;5557;51.670;7.788;2023-02-28T09:57:14;2.23;;;1.70;;
11008;SDS011;5557;51.670;7.788;2023-02-28T10:00:20;2.17;;;2.07;;
11008;SDS011;5557;51.670;7.788;2023-02-28T10:06:01;4.40;;;2.50;;
11008;SDS011;5557;51.670;7.788;2023-02-28T10:09:04;1.80;;;1.70;;
11008;SDS011;5557;51.670;7.788;2023-02-28T10:11:39;1.70;;;1.60;;
11008;SDS011;5557;51.670;7.788;2023-02-28T10:14:12;2.47;;;2.30;;
11008;SDS011;5557;51.670;7.788;2023-02-28T10:20:02;2.30;;;2.20;;
11008;SDS011;5557;51.670;7.788;2023-02-28T10:22:50;3.10;;;2.20;;
11008;SDS011;5557;51.670;7.788;2023-02-28T10:25:38;1.57;;;1.47;;
11008;SDS011;5557;51.670;7.788;2023-02-28T10:28:09;1.93;;;1.83;;
11008;SDS011;5557;51.670;7.788;2023-02-28T10:30:42;7.43;;;2.20;;
11008;SDS011;5557;51.670;7.788;2023-02-28T10:33:17;1.70;;;1.60;;
11008;SDS011;5557;51.670;7.788;2023-02-28T10:35:45;3.87;;;1.83;;
11008;SDS011;5557;51.670;7.788;2023-02-28T10:38:15;1.60;;;1.50;;
11008;SDS011;5557;51.670;7.788;2023-02-28T10:40:47;1.67;;;1.57;;
11008;SDS011;5557;51.670;7.788;2023-02-28T10:43:19;2.37;;;2.17;;
11008;SDS011;5557;51.670;7.788;2023-02-28T10:49:03;1.70;;;1.60;;
11008;SDS011;5557;51.670;7.788;2023-02-28T10:51:39;2.93;;;1.80;;
11008;SDS011;5557;51.670;7.788;2023-02-28T10:54:24;2.80;;;2.10;;
11008;SDS011;5557;51.670;7.788;2023-02-28T10:57:05;2.20;;;2.10;;
11008;SDS011;5557;51.670;7.788;2023-02-28T10:59:33;2.33;;;2.17;;
11008;SDS011;5557;51.670;7.788;2023-02-28T11:02:00;2.00;;;1.90;;
11008;SDS011;5557;51.670;7.788;2023-02-28T11:04:36;2.10;;;2.00;;
11008;SDS011;5557;51.670;7.788;2023-02-28T11:07:16;3.70;;;2.40;;
11008;SDS011;5557;51.670;7.788;2023-02-28T11:09:50;2.60;;;2.40;;
11008;SDS011;5557;51.670;7.788;2023-02-28T11:15:21;3.07;;;2.63;;
11008;SDS011;5557;51.670;7.788;2023-02-28T11:18:19;2.40;;;2.30;;
11008;SDS011;5557;51.670;7.788;2023-02-28T11:20:49;3.23;;;3.10;;
11008;SDS011;5557;51.670;7.788;2023-02-28T11:23:18;3.70;;;3.50;;
11008;SDS011;5557;51.670;7.788;2023-02-28T11:25:47;3.13;;;2.80;;
11008;SDS011;5557;51.670;7.788;2023-02-28T11:31:16;4.00;;;3.37;;
11008;SDS011;5557;51.670;7.788;2023-02-28T11:33:52;8.73;;;3.37;;
11008;SDS011;5557;51.670;7.788;2023-02-28T11:36:26;3.33;;;3.23;;
11008;SDS011;5557;51.670;7.788;2023-02-28T11:38:58;3.27;;;2.80;;
11008;SDS011;5557;51.670;7.788;2023-02-28T11:41:33;3.20;;;2.90;;
11008;SDS011;5557;51.670;7.788;2023-02-28T11:44:34;3.40;;;3.20;;
11008;SDS011;5557;51.670;7.788;2023-02-28T11:47:35;2.40;;;2.20;;
11008;SDS011;5557;51.670;7.788;2023-02-28T11:56:29;4.60;;;2.07;;
11008;SDS011;5557;51.670;7.788;2023-02-28T12:02:29;2.57;;;2.37;;
11008;SDS011;5557;51.670;7.788;2023-02-28T12:05:30;2.50;;;2.20;;
11008;SDS011;5557;51.670;7.788;2023-02-28T12:11:29;2.43;;;2.33;;
11008;SDS011;5557;51.670;7.788;2023-02-28T12:14:24;2.40;;;2.30;;
11008;SDS011;5557;51.670;7.788;2023-02-28T12:20:00;2.93;;;2.30;;
11008;SDS011;5557;51.670;7.788;2023-02-28T12:26:36;2.53;;;2.27;;
11008;SDS011;5557;51.670;7.788;2023-02-28T12:28:44;2.50;;;2.40;;
11008;SDS011;5557;51.670;7.788;2023-02-28T12:31:35;3.23;;;2.90;;
11008;SDS011;5557;51.670;7.788;2023-02-28T12:34:07;3.60;;;3.30;;
11008;SDS011;5557;51.670;7.788;2023-02-28T12:36:38;3.20;;;3.03;;
11008;SDS011;5557;51.670;7.788;2023-02-28T12:39:08;2.33;;;2.23;;
11008;SDS011;5557;51.670;7.788;2023-02-28T12:42:01;2.70;;;2.50;;
11008;SDS011;5557;51.670;7.788;2023-02-28T12:44:37;5.23;;;2.20;;
11008;SDS011;5557;51.670;7.788;2023-02-28T12:47:13;2.83;;;2.73;;
11008;SDS011;5557;51.670;7.788;2023-02-28T12:49:45;2.67;;;2.57;;
11008;SDS011;5557;51.670;7.788;2023-02-28T12:52:52;5.00;;;3.33;;
11008;SDS011;5557;51.670;7.788;2023-02-28T12:55:35;2.80;;;2.60;;
11008;SDS011;5557;51.670;7.788;2023-02-28T13:09:58;4.00;;;2.30;;
11008;SDS011;5557;51.670;7.788;2023-02-28T13:12:27;3.40;;;3.30;;
11008;SDS011;5557;51.670;7.788;2023-02-28T13:15:29;3.17;;;3.07;;
11008;SDS011;5557;51.670;7.788;2023-02-28T13:17:58;4.93;;;3.20;;
11008;SDS011;5557;51.670;7.788;2023-02-28T13:20:34;2.97;;;2.87;;
11008;SDS011;5557;51.670;7.788;2023-02-28T13:23:02;4.50;;;3.30;;
11008;SDS011;5557;51.670;7.788;2023-02-28T13:25:50;6.43;;;3.03;;
11008;SDS011;5557;51.670;7.788;2023-02-28T13:31:30;3.40;;;3.20;;
11008;SDS011;5557;51.670;7.788;2023-02-28T13:34:12;3.73;;;3.07;;
11008;SDS011;5557;51.670;7.788;2023-02-28T13:36:41;3.40;;;3.20;;
11008;SDS011;5557;51.670;7.788;2023-02-28T13:45:23;5.63;;;2.77;;
11008;SDS011;5557;51.670;7.788;2023-02-28T13:48:02;4.20;;;3.60;;
11008;SDS011;5557;51.670;7.788;2023-02-28T13:50:32;2.70;;;2.60;;
11008;SDS011;5557;51.670;7.788;2023-02-28T13:53:24;3.40;;;3.20;;
11008;SDS011;5557;51.670;7.788;2023-02-28T13:56:19;2.20;;;2.10;;
11008;SDS011;5557;51.670;7.788;2023-02-28T13:59:17;3.03;;;2.93;;
11008;SDS011;5557;51.670;7.788;2023-02-28T14:01:56;3.50;;;3.27;;
11008;SDS011;5557;51.670;7.788;2023-02-28T14:04:54;4.63;;;3.40;;
11008;SDS011;5557;51.670;7.788;2023-02-28T14:07:43;3.47;;;3.37;;
11008;SDS011;5557;51.670;7.788;2023-02-28T14:10:28;5.10;;;4.10;;
11008;SDS011;5557;51.670;7.788;2023-02-28T14:16:05;3.60;;;3.40;;
11008;SDS011;5557;51.670;7.788;2023-02-28T14:18:35;4.07;;;3.87;;
11008;SDS011;5557;51.670;7.788;2023-02-28T14:24:13;6.40;;;3.50;;
11008;SDS011;5557;51.670;7.788;2023-02-28T14:27:24;3.60;;;3.40;;
11008;SDS011;5557;51.670;7.788;2023-02-28T14:33:57;6.60;;;3.70;;
11008;SDS011;5557;51.670;7.788;2023-02-28T14:36:37;3.63;;;3.53;;
11008;SDS011;5557;51.670;7.788;2023-02-28T14:39:13;3.90;;;2.97;;
11008;SDS011;5557;51.670;7.788;2023-02-28T14:41:47;3.43;;;3.23;;
11008;SDS011;5557;51.670;7.788;2023-02-28T14:44:18;3.30;;;3.20;;
11008;SDS011;5557;51.670;7.788;2023-02-28T14:46:57;3.40;;;3.20;;
11008;SDS011;5557;51.670;7.788;2023-02-28T14:49:38;3.90;;;3.60;;
11008;SDS011;5557;51.670;7.788;2023-02-28T14:54:51;3.27;;;3.07;;
11008;SDS011;5557;51.670;7.788;2023-02-28T14:57:27;3.07;;;2.87;;
11008;SDS011;5557;51.670;7.788;2023-02-28T15:02:54;3.60;;;3.30;;
11008;SDS011;5557;51.670;7.788;2023-02-28T15:05:32;3.67;;;3.47;;
11008;SDS011;5557;51.670;7.788;2023-02-28T15:08:02;3.70;;;3.50;;
11008;SDS011;5557;51.670;7.788;2023-02-28T15:10:51;3.83;;;2.90;;
11008;SDS011;5557;51.670;7.788;2023-02-28T15:13:19;3.23;;;3.03;;
11008;SDS011;5557;51.670;7.788;2023-02-28T15:18:30;2.90;;;2.80;;
11008;SDS011;5557;51.670;7.788;2023-02-28T15:20:59;3.23;;;3.03;;
11008;SDS011;5557;51.670;7.788;2023-02-28T15:23:29;2.93;;;2.73;;
11008;SDS011;5557;51.670;7.788;2023-02-28T15:25:57;3.23;;;3.07;;
11008;SDS011;5557;51.670;7.788;2023-02-28T15:28:25;6.70;;;3.17;;
11008;SDS011;5557;51.670;7.788;2023-02-28T15:30:58;3.57;;;2.57;;
11008;SDS011;5557;51.670;7.788;2023-02-28T15:33:28;5.77;;;3.50;;
11008;SDS011;5557;51.670;7.788;2023-02-28T15:36:16;3.30;;;3.00;;
11008;SDS011;5557;51.670;7.788;2023-02-28T15:38:50;3.03;;;2.87;;
11008;SDS011;5557;51.670;7.788;2023-02-28T15:41:35;3.43;;;3.23;;
11008;SDS011;5557;51.670;7.788;2023-02-28T15:44:28;3.03;;;2.90;;
11008;SDS011;5557;51.670;7.788;2023-02-28T15:47:07;3.40;;;3.30;;
11008;SDS011;5557;51.670;7.788;2023-02-28T15:52:21;5.57;;;3.03;;
11008;SDS011;5557;51.670;7.788;2023-02-28T15:54:57;3.30;;;3.00;;
11008;SDS011;5557;51.670;7.788;2023-02-28T15:57:25;3.03;;;2.83;;
11008;SDS011;5557;51.670;7.788;2023-02-28T16:00:00;3.00;;;2.90;;
11008;SDS011;5557;51.670;7.788;2023-02-28T16:02:38;3.23;;;3.07;;
11008;SDS011;5557;51.670;7.788;2023-02-28T16:05:30;3.43;;;3.23;;
11008;SDS011;5557;51.670;7.788;2023-02-28T16:08:06;3.17;;;3.00;;
11008;SDS011;5557;51.670;7.788;2023-02-28T16:10:41;3.20;;;3.00;;
11008;SDS011;5557;51.670;7.788;2023-02-28T16:13:08;3.30;;;3.07;;
11008;SDS011;5557;51.670;7.788;2023-02-28T16:15:42;2.80;;;2.60;;
11008;SDS011;5557;51.670;7.788;2023-02-28T16:18:10;3.00;;;2.80;;
11008;SDS011;5557;51.670;7.788;2023-02-28T16:20:38;4.60;;;3.20;;
11008;SDS011;5557;51.670;7.788;2023-02-28T16:23:05;6.70;;;3.30;;
11008;SDS011;5557;51.670;7.788;2023-02-28T16:25:35;3.90;;;3.40;;
11008;SDS011;5557;51.670;7.788;2023-02-28T16:28:03;2.83;;;2.73;;
11008;SDS011;5557;51.670;7.788;2023-02-28T16:30:34;2.40;;;2.30;;
11008;SDS011;5557;51.670;7.788;2023-02-28T16:33:01;3.43;;;3.10;;
11008;SDS011;5557;51.670;7.788;2023-02-28T16:35:28;2.87;;;2.67;;
11008;SDS011;5557;51.670;7.788;2023-02-28T16:37:55;3.17;;;3.07;;
11008;SDS011;5557;51.670;7.788;2023-02-28T16:40:23;3.77;;;3.10;;
11008;SDS011;5557;51.670;7.788;2023-02-28T16:42:52;4.17;;;3.60;;
11008;SDS011;5557;51.670;7.788;2023-02-28T16:45:25;3.47;;;3.17;;
11008;SDS011;5557;51.670;7.788;2023-02-28T16:47:53;3.07;;;2.97;;
11008;SDS011;5557;51.670;7.788;2023-02-28T16:50:22;3.20;;;2.90;;
11008;SDS011;5557;51.670;7.788;2023-02-28T16:52:54;3.30;;;3.10;;
11008;SDS011;5557;51.670;7.788;2023-02-28T16:55:22;3.50;;;3.30;;
11008;SDS011;5557;51.670;7.788;2023-02-28T16:57:51;4.43;;;3.10;;
11008;SDS011;5557;51.670;7.788;2023-02-28T17:00:20;4.50;;;4.10;;
11008;SDS011;5557;51.670;7.788;2023-02-28T17:02:48;10.00;;;4.00;;
11008;SDS011;5557;51.670;7.788;2023-02-28T17:05:18;5.33;;;4.30;;
11008;SDS011;5557;51.670;7.788;2023-02-28T17:07:46;4.23;;;3.90;;
11008;SDS011;5557;51.670;7.788;2023-02-28T17:10:18;4.23;;;3.83;;
11008;SDS011;5557;51.670;7.788;2023-02-28T17:12:47;3.77;;;3.57;;
11008;SDS011;5557;51.670;7.788;2023-02-28T17:15:15;5.00;;;4.60;;
11008;SDS011;5557;51.670;7.788;2023-02-28T17:17:43;5.80;;;5.00;;
11008;SDS011;5557;51.670;7.788;2023-02-28T17:20:16;9.30;;;5.27;;
11008;SDS011;5557;51.670;7.788;2023-02-28T17:22:44;7.07;;;6.13;;
11008;SDS011;5557;51.670;7.788;2023-02-28T17:25:11;6.27;;;5.77;;
11008;SDS011;5557;51.670;7.788;2023-02-28T17:27:38;5.57;;;5.20;;
11008;SDS011;5557;51.670;7.788;2023-02-28T17:32:59;4.90;;;4.50;;
11008;SDS011;5557;51.670;7.788;2023-02-28T17:35:26;12.20;;;9.43;;
11008;SDS011;5557;51.670;7.788;2023-02-28T17:37:53;4.60;;;4.30;;